sensor_id;sensor_type;location;lat;lon;timestamp;P1;durP1;ratioP1;P2;durP2;ratioP2
14768;SDS011;7476;49.404;11.152;2023-02-01T00:00:10;5.83;;;4.30;;
14768;SDS011;7476;49.404;11.152;2023-02-01T00:02:38;5.50;;;4.70;;
14768;SDS011;7476;49.404;11.152;2023-02-01T00:05:07;6.53;;;4.60;;
14768;SDS011;7476;49.404;11.152;2023-02-01T00:07:34;5.90;;;4.70;;
14768;SDS011;7476;49.404;11.152;2023-02-01T00:10:01;5.50;;;4.53;;
14768;SDS011;7476;49.404;11.152;2023-02-01T00:12:29;6.80;;;4.73;;
14768;SDS011;7476;49.404;11.152;2023-02-01T00:14:56;5.30;;;4.60;;
14768;SDS011;7476;49.404;11.152;2023-02-01T00:17:23;7.83;;;4.93;;
14768;SDS011;7476;49.404;11.152;2023-02-01T00:19:50;7.27;;;5.30;;
14768;SDS011;7476;49.404;11.152;2023-02-01T00:22:19;5.97;;;5.30;;
14768;SDS011;7476;49.404;11.152;2023-02-01T00:24:45;7.57;;;5.60;;
14768;SDS011;7476;49.404;11.152;2023-02-01T00:27:12;7.83;;;5.30;;
14768;SDS011;7476;49.404;11.152;2023-02-01T00:29:42;7.60;;;5.40;;
14768;SDS011;7476;49.404;11.152;2023-02-01T00:32:10;6.60;;;5.17;;
14768;SDS011;7476;49.404;11.152;2023-02-01T00:34:36;6.87;;;4.90;;
14768;SDS011;7476;49.404;11.152;2023-02-01T00:37:03;7.47;;;5.77;;
14768;SDS011;7476;49.404;11.152;2023-02-01T00:39:31;8.07;;;5.53;;
14768;SDS011;7476;49.404;11.152;2023-02-01T00:41:59;8.20;;;5.17;;
14768;SDS011;7476;49.404;11.152;2023-02-01T00:44:26;7.93;;;5.90;;
14768;SDS011;7476;49.404;11.152;2023-02-01T00:46:53;7.57;;;5.97;;
14768;SDS011;7476;49.404;11.152;2023-02-01T00:49:19;7.17;;;6.00;;
14768;SDS011;7476;49.404;11.152;2023-02-01T00:51:46;7.07;;;5.40;;
14768;SDS011;7476;49.404;11.152;2023-02-01T00:54:13;7.10;;;5.90;;
14768;SDS011;7476;49.404;11.152;2023-02-01T00:56:41;6.30;;;5.57;;
14768;SDS011;7476;49.404;11.152;2023-02-01T00:59:10;6.87;;;5.80;;
14768;SDS011;7476;49.404;11.152;2023-02-01T01:01:37;6.67;;;5.40;;
14768;SDS011;7476;49.404;11.152;2023-02-01T01:04:03;8.97;;;6.53;;
14768;SDS011;7476;49.404;11.152;2023-02-01T01:06:31;7.33;;;6.30;;
14768;SDS011;7476;49.404;11.152;2023-02-01T01:08:59;7.30;;;5.67;;
14768;SDS011;7476;49.404;11.152;2023-02-01T01:11:27;9.10;;;6.33;;
14768;SDS011;7476;49.404;11.152;2023-02-01T01:13:57;10.43;;;5.90;;
14768;SDS011;7476;49.404;11.152;2023-02-01T01:16:25;7.50;;;5.93;;
14768;SDS011;7476;49.404;11.152;2023-02-01T01:18:54;9.13;;;6.03;;
14768;SDS011;7476;49.404;11.152;2023-02-01T01:21:21;8.53;;;6.30;;
14768;SDS011;7476;49.404;11.152;2023-02-01T01:23:48;7.03;;;5.67;;
14768;SDS011;7476;49.404;11.152;2023-02-01T01:26:16;6.77;;;5.17;;
14768;SDS011;7476;49.404;11.152;2023-02-01T01:28:43;6.50;;;5.60;;
14768;SDS011;7476;49.404;11.152;2023-02-01T01:31:11;6.67;;;5.50;;
14768;SDS011;7476;49.404;11.152;2023-02-01T01:33:39;6.87;;;5.07;;
14768;SDS011;7476;49.404;11.152;2023-02-01T01:36:07;8.53;;;5.57;;
14768;SDS011;7476;49.404;11.152;2023-02-01T01:38:36;5.93;;;5.17;;
14768;SDS011;7476;49.404;11.152;2023-02-01T01:41:03;7.20;;;5.10;;
14768;SDS011;7476;49.404;11.152;2023-02-01T01:43:44;8.07;;;5.90;;
14768;SDS011;7476;49.404;11.152;2023-02-01T01:46:19;8.83;;;5.60;;
14768;SDS011;7476;49.404;11.152;2023-02-01T01:48:48;6.50;;;5.70;;
14768;SDS011;7476;49.404;11.152;2023-02-01T01:51:17;9.00;;;5.53;;
14768;SDS011;7476;49.404;11.152;2023-02-01T01:53:48;8.03;;;6.00;;
14768;SDS011;7476;49.404;11.152;2023-02-01T01:56:20;6.13;;;5.40;;
14768;SDS011;7476;49.404;11.152;2023-02-01T01:58:47;7.23;;;5.53;;
14768;SDS011;7476;49.404;11.152;2023-02-01T02:01:14;7.13;;;5.70;;
14768;SDS011;7476;49.404;11.152;2023-02-01T02:03:42;6.00;;;5.33;;
14768;SDS011;7476;49.404;11.152;2023-02-01T02:06:11;7.07;;;5.70;;
14768;SDS011;7476;49.404;11.152;2023-02-01T02:08:47;7.07;;;5.63;;
14768;SDS011;7476;49.404;11.152;2023-02-01T02:11:14;7.03;;;5.30;;
14768;SDS011;7476;49.404;11.152;2023-02-01T02:13:43;6.47;;;5.17;;
14768;SDS011;7476;49.404;11.152;2023-02-01T02:16:27;8.20;;;5.57;;
14768;SDS011;7476;49.404;11.152;2023-02-01T02:22:39;6.67;;;5.23;;
14768;SDS011;7476;49.404;11.152;2023-02-01T02:25:30;6.87;;;5.50;;
14768;SDS011;7476;49.404;11.152;2023-02-01T02:28:11;6.27;;;5.03;;
14768;SDS011;7476;49.404;11.152;2023-02-01T02:30:54;7.40;;;5.03;;
14768;SDS011;7476;49.404;11.152;2023-02-01T02:33:40;5.70;;;5.03;;
14768;SDS011;7476;49.404;11.152;2023-02-01T02:36:14;7.07;;;4.40;;
14768;SDS011;7476;49.404;11.152;2023-02-01T02:38:47;5.67;;;4.57;;
14768;SDS011;7476;49.404;11.152;2023-02-01T02:41:24;6.40;;;5.70;;
14768;SDS011;7476;49.404;11.152;2023-02-01T02:44:16;5.90;;;5.30;;
14768;SDS011;7476;49.404;11.152;2023-02-01T02:47:07;6.03;;;5.03;;
14768;SDS011;7476;49.404;11.152;2023-02-01T02:49:54;7.40;;;5.27;;
14768;SDS011;7476;49.404;11.152;2023-02-01T02:52:42;9.50;;;6.27;;
14768;SDS011;7476;49.404;11.152;2023-02-01T02:55:30;8.13;;;6.20;;
14768;SDS011;7476;49.404;11.152;2023-02-01T02:58:01;9.03;;;6.23;;
14768;SDS011;7476;49.404;11.152;2023-02-01T03:00:47;7.83;;;6.30;;
14768;SDS011;7476;49.404;11.152;2023-02-01T03:03:35;9.73;;;6.73;;
14768;SDS011;7476;49.404;11.152;2023-02-01T03:06:22;8.43;;;6.57;;
14768;SDS011;7476;49.404;11.152;2023-02-01T03:08:49;8.10;;;6.90;;
14768;SDS011;7476;49.404;11.152;2023-02-01T03:11:19;8.03;;;6.40;;
14768;SDS011;7476;49.404;11.152;2023-02-01T03:13:48;9.40;;;6.50;;
14768;SDS011;7476;49.404;11.152;2023-02-01T03:16:18;8.43;;;6.70;;
14768;SDS011;7476;49.404;11.152;2023-02-01T03:18:52;8.17;;;6.80;;
14768;SDS011;7476;49.404;11.152;2023-02-01T03:21:25;9.23;;;6.47;;
14768;SDS011;7476;49.404;11.152;2023-02-01T03:23:56;8.77;;;5.90;;
14768;SDS011;7476;49.404;11.152;2023-02-01T03:26:26;7.53;;;6.67;;
14768;SDS011;7476;49.404;11.152;2023-02-01T03:28:57;8.40;;;6.43;;
14768;SDS011;7476;49.404;11.152;2023-02-01T03:31:31;8.20;;;6.77;;
14768;SDS011;7476;49.404;11.152;2023-02-01T03:33:58;8.33;;;6.90;;
14768;SDS011;7476;49.404;11.152;2023-02-01T03:36:28;9.00;;;7.17;;
14768;SDS011;7476;49.404;11.152;2023-02-01T03:38:58;8.87;;;7.37;;
14768;SDS011;7476;49.404;11.152;2023-02-01T03:41:32;8.33;;;6.97;;
14768;SDS011;7476;49.404;11.152;2023-02-01T03:44:04;10.23;;;7.10;;
14768;SDS011;7476;49.404;11.152;2023-02-01T03:46:38;9.60;;;7.47;;
14768;SDS011;7476;49.404;11.152;2023-02-01T03:49:08;9.57;;;7.13;;
14768;SDS011;7476;49.404;11.152;2023-02-01T03:51:40;9.67;;;7.03;;
14768;SDS011;7476;49.404;11.152;2023-02-01T03:54:08;10.30;;;7.43;;
14768;SDS011;7476;49.404;11.152;2023-02-01T03:56:39;8.57;;;7.40;;
14768;SDS011;7476;49.404;11.152;2023-02-01T03:59:10;11.47;;;7.80;;
14768;SDS011;7476;49.404;11.152;2023-02-01T04:01:36;11.00;;;7.80;;
14768;SDS011;7476;49.404;11.152;2023-02-01T04:04:03;9.17;;;6.97;;
14768;SDS011;7476;49.404;11.152;2023-02-01T04:06:30;8.70;;;7.33;;
14768;SDS011;7476;49.404;11.152;2023-02-01T04:08:58;11.33;;;7.40;;
14768;SDS011;7476;49.404;11.152;2023-02-01T04:11:25;7.87;;;6.83;;
14768;SDS011;7476;49.404;11.152;2023-02-01T04:13:52;9.97;;;7.00;;
14768;SDS011;7476;49.404;11.152;2023-02-01T04:16:19;8.07;;;6.70;;
14768;SDS011;7476;49.404;11.152;2023-02-01T04:18:45;9.53;;;6.90;;
14768;SDS011;7476;49.404;11.152;2023-02-01T04:21:12;9.17;;;7.00;;
14768;SDS011;7476;49.404;11.152;2023-02-01T04:23:39;12.60;;;6.97;;
14768;SDS011;7476;49.404;11.152;2023-02-01T04:26:07;10.27;;;7.07;;
14768;SDS011;7476;49.404;11.152;2023-02-01T04:28:33;8.23;;;6.17;;
14768;SDS011;7476;49.404;11.152;2023-02-01T04:31:00;10.83;;;6.90;;
14768;SDS011;7476;49.404;11.152;2023-02-01T04:33:26;9.07;;;6.40;;
14768;SDS011;7476;49.404;11.152;2023-02-01T04:35:53;10.73;;;6.90;;
14768;SDS011;7476;49.404;11.152;2023-02-01T04:38:20;8.47;;;6.87;;
14768;SDS011;7476;49.404;11.152;2023-02-01T04:40:47;9.93;;;7.93;;
14768;SDS011;7476;49.404;11.152;2023-02-01T04:43:16;10.23;;;6.60;;
14768;SDS011;7476;49.404;11.152;2023-02-01T04:45:46;7.20;;;6.37;;
14768;SDS011;7476;49.404;11.152;2023-02-01T04:48:13;7.30;;;6.43;;
14768;SDS011;7476;49.404;11.152;2023-02-01T04:50:40;9.10;;;6.60;;
14768;SDS011;7476;49.404;11.152;2023-02-01T04:53:06;7.10;;;5.87;;
14768;SDS011;7476;49.404;11.152;2023-02-01T04:55:33;9.37;;;6.60;;
14768;SDS011;7476;49.404;11.152;2023-02-01T04:58:00;8.30;;;6.13;;
14768;SDS011;7476;49.404;11.152;2023-02-01T05:00:28;9.97;;;6.93;;
14768;SDS011;7476;49.404;11.152;2023-02-01T05:02:54;7.80;;;6.50;;
14768;SDS011;7476;49.404;11.152;2023-02-01T05:05:21;8.57;;;6.57;;
14768;SDS011;7476;49.404;11.152;2023-02-01T05:07:48;10.70;;;7.00;;
14768;SDS011;7476;49.404;11.152;2023-02-01T05:10:14;8.17;;;6.63;;
14768;SDS011;7476;49.404;11.152;2023-02-01T05:12:42;9.03;;;6.40;;
14768;SDS011;7476;49.404;11.152;2023-02-01T05:15:28;10.70;;;7.37;;
14768;SDS011;7476;49.404;11.152;2023-02-01T05:17:54;9.63;;;6.57;;
14768;SDS011;7476;49.404;11.152;2023-02-01T05:20:21;8.63;;;6.63;;
14768;SDS011;7476;49.404;11.152;2023-02-01T05:22:48;10.80;;;7.17;;
14768;SDS011;7476;49.404;11.152;2023-02-01T05:25:15;10.80;;;6.90;;
14768;SDS011;7476;49.404;11.152;2023-02-01T05:27:41;8.70;;;6.90;;
14768;SDS011;7476;49.404;11.152;2023-02-01T05:30:09;8.60;;;6.83;;
14768;SDS011;7476;49.404;11.152;2023-02-01T05:32:37;9.27;;;7.00;;
14768;SDS011;7476;49.404;11.152;2023-02-01T05:35:04;9.73;;;6.80;;
14768;SDS011;7476;49.404;11.152;2023-02-01T05:37:32;7.83;;;6.27;;
14768;SDS011;7476;49.404;11.152;2023-02-01T05:39:58;8.43;;;6.33;;
14768;SDS011;7476;49.404;11.152;2023-02-01T05:42:25;9.17;;;6.30;;
14768;SDS011;7476;49.404;11.152;2023-02-01T05:44:52;8.77;;;6.53;;
14768;SDS011;7476;49.404;11.152;2023-02-01T05:47:19;8.93;;;7.13;;
14768;SDS011;7476;49.404;11.152;2023-02-01T05:49:47;10.33;;;7.00;;
14768;SDS011;7476;49.404;11.152;2023-02-01T05:52:13;9.97;;;7.17;;
14768;SDS011;7476;49.404;11.152;2023-02-01T05:54:44;11.93;;;7.73;;
14768;SDS011;7476;49.404;11.152;2023-02-01T05:57:10;10.10;;;8.00;;
14768;SDS011;7476;49.404;11.152;2023-02-01T05:59:37;10.10;;;8.67;;
14768;SDS011;7476;49.404;11.152;2023-02-01T06:02:06;9.60;;;8.17;;
14768;SDS011;7476;49.404;11.152;2023-02-01T06:04:32;10.53;;;8.37;;
14768;SDS011;7476;49.404;11.152;2023-02-01T06:07:01;9.30;;;7.90;;
14768;SDS011;7476;49.404;11.152;2023-02-01T06:09:28;7.90;;;6.70;;
14768;SDS011;7476;49.404;11.152;2023-02-01T06:11:56;8.87;;;6.50;;
14768;SDS011;7476;49.404;11.152;2023-02-01T06:14:23;7.50;;;5.97;;
14768;SDS011;7476;49.404;11.152;2023-02-01T06:16:50;8.27;;;5.93;;
14768;SDS011;7476;49.404;11.152;2023-02-01T06:19:16;7.37;;;5.93;;
14768;SDS011;7476;49.404;11.152;2023-02-01T06:21:43;6.90;;;5.93;;
14768;SDS011;7476;49.404;11.152;2023-02-01T06:24:11;6.97;;;5.70;;
14768;SDS011;7476;49.404;11.152;2023-02-01T06:26:37;6.30;;;5.53;;
14768;SDS011;7476;49.404;11.152;2023-02-01T06:29:05;5.63;;;4.77;;
14768;SDS011;7476;49.404;11.152;2023-02-01T06:31:31;5.70;;;5.10;;
14768;SDS011;7476;49.404;11.152;2023-02-01T06:33:58;5.83;;;5.20;;
14768;SDS011;7476;49.404;11.152;2023-02-01T06:36:25;6.30;;;5.70;;
14768;SDS011;7476;49.404;11.152;2023-02-01T06:38:51;6.60;;;5.90;;
14768;SDS011;7476;49.404;11.152;2023-02-01T06:41:20;7.00;;;5.57;;
14768;SDS011;7476;49.404;11.152;2023-02-01T06:43:46;7.20;;;5.67;;
14768;SDS011;7476;49.404;11.152;2023-02-01T06:46:13;8.53;;;5.27;;
14768;SDS011;7476;49.404;11.152;2023-02-01T06:48:40;8.50;;;4.90;;
14768;SDS011;7476;49.404;11.152;2023-02-01T06:51:15;8.23;;;5.20;;
14768;SDS011;7476;49.404;11.152;2023-02-01T06:53:44;6.13;;;5.53;;
14768;SDS011;7476;49.404;11.152;2023-02-01T06:56:11;6.70;;;5.40;;
14768;SDS011;7476;49.404;11.152;2023-02-01T06:58:39;9.60;;;5.83;;
14768;SDS011;7476;49.404;11.152;2023-02-01T07:01:06;6.67;;;5.40;;
14768;SDS011;7476;49.404;11.152;2023-02-01T07:03:34;6.13;;;5.17;;
14768;SDS011;7476;49.404;11.152;2023-02-01T07:06:01;6.83;;;5.27;;
14768;SDS011;7476;49.404;11.152;2023-02-01T07:08:30;5.93;;;4.97;;
14768;SDS011;7476;49.404;11.152;2023-02-01T07:11:00;5.37;;;4.83;;
14768;SDS011;7476;49.404;11.152;2023-02-01T07:13:28;5.70;;;4.77;;
14768;SDS011;7476;49.404;11.152;2023-02-01T07:15:58;5.53;;;4.43;;
14768;SDS011;7476;49.404;11.152;2023-02-01T07:18:25;4.97;;;4.27;;
14768;SDS011;7476;49.404;11.152;2023-02-01T07:20:52;6.00;;;4.03;;
14768;SDS011;7476;49.404;11.152;2023-02-01T07:23:19;5.70;;;4.53;;
14768;SDS011;7476;49.404;11.152;2023-02-01T07:25:46;5.30;;;4.53;;
14768;SDS011;7476;49.404;11.152;2023-02-01T07:28:13;5.83;;;4.40;;
14768;SDS011;7476;49.404;11.152;2023-02-01T07:30:40;5.07;;;4.43;;
14768;SDS011;7476;49.404;11.152;2023-02-01T07:33:07;5.07;;;4.53;;
14768;SDS011;7476;49.404;11.152;2023-02-01T07:35:34;6.80;;;4.80;;
14768;SDS011;7476;49.404;11.152;2023-02-01T07:38:01;6.13;;;4.90;;
14768;SDS011;7476;49.404;11.152;2023-02-01T07:40:27;9.20;;;5.27;;
14768;SDS011;7476;49.404;11.152;2023-02-01T07:42:55;6.47;;;5.40;;
14768;SDS011;7476;49.404;11.152;2023-02-01T07:45:22;7.57;;;4.93;;
14768;SDS011;7476;49.404;11.152;2023-02-01T07:47:50;6.87;;;5.30;;
14768;SDS011;7476;49.404;11.152;2023-02-01T07:50:19;6.90;;;5.23;;
14768;SDS011;7476;49.404;11.152;2023-02-01T07:52:46;6.50;;;5.73;;
14768;SDS011;7476;49.404;11.152;2023-02-01T07:55:12;5.70;;;4.80;;
14768;SDS011;7476;49.404;11.152;2023-02-01T07:57:39;6.30;;;4.93;;
14768;SDS011;7476;49.404;11.152;2023-02-01T08:00:07;5.93;;;5.17;;
14768;SDS011;7476;49.404;11.152;2023-02-01T08:02:52;6.60;;;4.80;;
14768;SDS011;7476;49.404;11.152;2023-02-01T08:05:20;7.00;;;4.13;;
14768;SDS011;7476;49.404;11.152;2023-02-01T08:07:48;6.77;;;4.43;;
14768;SDS011;7476;49.404;11.152;2023-02-01T08:10:15;6.77;;;4.20;;
14768;SDS011;7476;49.404;11.152;2023-02-01T08:12:42;6.03;;;4.17;;
14768;SDS011;7476;49.404;11.152;2023-02-01T08:15:12;6.10;;;4.03;;
14768;SDS011;7476;49.404;11.152;2023-02-01T08:17:39;5.50;;;4.13;;
14768;SDS011;7476;49.404;11.152;2023-02-01T08:20:06;7.30;;;4.27;;
14768;SDS011;7476;49.404;11.152;2023-02-01T08:22:35;5.07;;;3.67;;
14768;SDS011;7476;49.404;11.152;2023-02-01T08:25:02;6.17;;;3.93;;
14768;SDS011;7476;49.404;11.152;2023-02-01T08:27:29;5.80;;;3.70;;
14768;SDS011;7476;49.404;11.152;2023-02-01T08:29:58;5.73;;;4.03;;
14768;SDS011;7476;49.404;11.152;2023-02-01T08:32:25;5.80;;;3.50;;
14768;SDS011;7476;49.404;11.152;2023-02-01T08:34:51;4.13;;;3.60;;
14768;SDS011;7476;49.404;11.152;2023-02-01T08:37:18;7.07;;;3.73;;
14768;SDS011;7476;49.404;11.152;2023-02-01T08:39:46;4.33;;;3.43;;
14768;SDS011;7476;49.404;11.152;2023-02-01T08:42:15;4.53;;;3.37;;
14768;SDS011;7476;49.404;11.152;2023-02-01T08:45:00;5.50;;;3.73;;
14768;SDS011;7476;49.404;11.152;2023-02-01T08:47:27;3.43;;;2.97;;
14768;SDS011;7476;49.404;11.152;2023-02-01T08:49:54;5.03;;;3.40;;
14768;SDS011;7476;49.404;11.152;2023-02-01T08:52:20;6.00;;;3.20;;
14768;SDS011;7476;49.404;11.152;2023-02-01T08:54:48;4.03;;;2.97;;
14768;SDS011;7476;49.404;11.152;2023-02-01T08:57:15;4.13;;;3.03;;
14768;SDS011;7476;49.404;11.152;2023-02-01T08:59:43;5.53;;;3.17;;
14768;SDS011;7476;49.404;11.152;2023-02-01T09:02:11;5.83;;;3.40;;
14768;SDS011;7476;49.404;11.152;2023-02-01T09:04:40;3.57;;;3.27;;
14768;SDS011;7476;49.404;11.152;2023-02-01T09:07:07;3.97;;;3.13;;
14768;SDS011;7476;49.404;11.152;2023-02-01T09:09:33;6.23;;;3.50;;
14768;SDS011;7476;49.404;11.152;2023-02-01T09:12:02;6.00;;;3.40;;
14768;SDS011;7476;49.404;11.152;2023-02-01T09:14:29;4.63;;;3.33;;
14768;SDS011;7476;49.404;11.152;2023-02-01T09:16:56;6.30;;;4.33;;
14768;SDS011;7476;49.404;11.152;2023-02-01T09:19:23;4.10;;;3.70;;
14768;SDS011;7476;49.404;11.152;2023-02-01T09:21:50;7.20;;;3.87;;
14768;SDS011;7476;49.404;11.152;2023-02-01T09:24:16;6.07;;;4.33;;
14768;SDS011;7476;49.404;11.152;2023-02-01T09:26:43;6.47;;;4.27;;
14768;SDS011;7476;49.404;11.152;2023-02-01T09:29:11;5.20;;;4.10;;
14768;SDS011;7476;49.404;11.152;2023-02-01T09:31:38;4.50;;;3.57;;
14768;SDS011;7476;49.404;11.152;2023-02-01T09:34:05;8.80;;;3.50;;
14768;SDS011;7476;49.404;11.152;2023-02-01T09:36:32;4.83;;;2.80;;
14768;SDS011;7476;49.404;11.152;2023-02-01T09:39:00;5.27;;;3.07;;
14768;SDS011;7476;49.404;11.152;2023-02-01T09:41:32;7.80;;;2.93;;
14768;SDS011;7476;49.404;11.152;2023-02-01T09:44:08;3.67;;;2.87;;
14768;SDS011;7476;49.404;11.152;2023-02-01T09:46:47;7.13;;;2.63;;
14768;SDS011;7476;49.404;11.152;2023-02-01T09:49:18;5.67;;;2.90;;
14768;SDS011;7476;49.404;11.152;2023-02-01T09:51:49;6.07;;;2.40;;
14768;SDS011;7476;49.404;11.152;2023-02-01T09:54:17;5.50;;;2.60;;
14768;SDS011;7476;49.404;11.152;2023-02-01T09:56:46;6.07;;;2.40;;
14768;SDS011;7476;49.404;11.152;2023-02-01T09:59:20;6.27;;;2.60;;
14768;SDS011;7476;49.404;11.152;2023-02-01T10:01:55;4.53;;;2.50;;
14768;SDS011;7476;49.404;11.152;2023-02-01T10:04:24;3.67;;;2.23;;
14768;SDS011;7476;49.404;11.152;2023-02-01T10:06:57;4.43;;;2.50;;
14768;SDS011;7476;49.404;11.152;2023-02-01T10:09:40;5.70;;;2.60;;
14768;SDS011;7476;49.404;11.152;2023-02-01T10:12:25;3.70;;;2.70;;
14768;SDS011;7476;49.404;11.152;2023-02-01T10:15:17;6.67;;;3.30;;
14768;SDS011;7476;49.404;11.152;2023-02-01T10:18:02;6.13;;;3.37;;
14768;SDS011;7476;49.404;11.152;2023-02-01T10:20:52;4.03;;;3.20;;
14768;SDS011;7476;49.404;11.152;2023-02-01T10:23:34;6.67;;;3.73;;
14768;SDS011;7476;49.404;11.152;2023-02-01T10:26:18;6.63;;;4.10;;
14768;SDS011;7476;49.404;11.152;2023-02-01T10:28:46;9.90;;;4.47;;
14768;SDS011;7476;49.404;11.152;2023-02-01T10:31:17;7.83;;;4.20;;
14768;SDS011;7476;49.404;11.152;2023-02-01T10:33:45;6.77;;;4.20;;
14768;SDS011;7476;49.404;11.152;2023-02-01T10:36:16;9.93;;;4.40;;
14768;SDS011;7476;49.404;11.152;2023-02-01T10:38:47;11.13;;;4.80;;
14768;SDS011;7476;49.404;11.152;2023-02-01T10:41:15;6.27;;;4.00;;
14768;SDS011;7476;49.404;11.152;2023-02-01T10:43:44;7.33;;;3.63;;
14768;SDS011;7476;49.404;11.152;2023-02-01T10:46:14;7.83;;;4.17;;
14768;SDS011;7476;49.404;11.152;2023-02-01T10:48:43;8.83;;;4.37;;
14768;SDS011;7476;49.404;11.152;2023-02-01T10:51:12;9.57;;;4.53;;
14768;SDS011;7476;49.404;11.152;2023-02-01T10:53:46;8.00;;;3.87;;
14768;SDS011;7476;49.404;11.152;2023-02-01T10:56:21;7.33;;;3.90;;
14768;SDS011;7476;49.404;11.152;2023-02-01T10:58:49;8.37;;;3.93;;
14768;SDS011;7476;49.404;11.152;2023-02-01T11:01:19;6.53;;;3.73;;
14768;SDS011;7476;49.404;11.152;2023-02-01T11:03:52;9.20;;;4.20;;
14768;SDS011;7476;49.404;11.152;2023-02-01T11:06:26;11.50;;;3.60;;
14768;SDS011;7476;49.404;11.152;2023-02-01T11:08:55;9.97;;;4.10;;
14768;SDS011;7476;49.404;11.152;2023-02-01T11:11:23;7.77;;;3.70;;
14768;SDS011;7476;49.404;11.152;2023-02-01T11:13:54;8.43;;;3.57;;
14768;SDS011;7476;49.404;11.152;2023-02-01T11:16:23;7.70;;;3.40;;
14768;SDS011;7476;49.404;11.152;2023-02-01T11:18:57;7.90;;;3.10;;
14768;SDS011;7476;49.404;11.152;2023-02-01T11:21:25;8.23;;;3.83;;
14768;SDS011;7476;49.404;11.152;2023-02-01T11:23:52;8.50;;;3.20;;
14768;SDS011;7476;49.404;11.152;2023-02-01T11:26:20;7.07;;;3.80;;
14768;SDS011;7476;49.404;11.152;2023-02-01T11:28:51;6.60;;;3.60;;
14768;SDS011;7476;49.404;11.152;2023-02-01T11:31:20;6.30;;;3.47;;
14768;SDS011;7476;49.404;11.152;2023-02-01T11:33:49;7.53;;;2.97;;
14768;SDS011;7476;49.404;11.152;2023-02-01T11:36:20;8.50;;;3.10;;
14768;SDS011;7476;49.404;11.152;2023-02-01T11:38:51;6.40;;;3.47;;
14768;SDS011;7476;49.404;11.152;2023-02-01T11:41:21;6.90;;;2.93;;
14768;SDS011;7476;49.404;11.152;2023-02-01T11:43:50;6.37;;;2.80;;
14768;SDS011;7476;49.404;11.152;2023-02-01T11:46:19;5.30;;;2.87;;
14768;SDS011;7476;49.404;11.152;2023-02-01T11:48:51;10.43;;;3.17;;
14768;SDS011;7476;49.404;11.152;2023-02-01T11:51:24;9.17;;;3.33;;
14768;SDS011;7476;49.404;11.152;2023-02-01T11:54:18;5.57;;;3.30;;
14768;SDS011;7476;49.404;11.152;2023-02-01T11:57:01;5.83;;;2.90;;
14768;SDS011;7476;49.404;11.152;2023-02-01T11:59:48;7.50;;;3.23;;
14768;SDS011;7476;49.404;11.152;2023-02-01T12:05:23;7.83;;;3.13;;
14768;SDS011;7476;49.404;11.152;2023-02-01T12:08:06;6.30;;;3.17;;
14768;SDS011;7476;49.404;11.152;2023-02-01T12:10:58;6.07;;;3.93;;
14768;SDS011;7476;49.404;11.152;2023-02-01T12:13:38;17.07;;;3.83;;
14768;SDS011;7476;49.404;11.152;2023-02-01T12:16:17;10.97;;;3.87;;
14768;SDS011;7476;49.404;11.152;2023-02-01T12:18:54;7.63;;;3.20;;
14768;SDS011;7476;49.404;11.152;2023-02-01T12:21:41;6.63;;;3.47;;
14768;SDS011;7476;49.404;11.152;2023-02-01T12:24:23;8.20;;;3.07;;
14768;SDS011;7476;49.404;11.152;2023-02-01T12:27:10;7.63;;;3.80;;
14768;SDS011;7476;49.404;11.152;2023-02-01T12:29:52;5.87;;;3.07;;
14768;SDS011;7476;49.404;11.152;2023-02-01T12:32:31;7.03;;;3.30;;
14768;SDS011;7476;49.404;11.152;2023-02-01T12:35:26;8.53;;;3.70;;
14768;SDS011;7476;49.404;11.152;2023-02-01T12:38:11;8.93;;;3.40;;
14768;SDS011;7476;49.404;11.152;2023-02-01T12:40:56;6.83;;;3.10;;
14768;SDS011;7476;49.404;11.152;2023-02-01T12:43:36;7.77;;;3.43;;
14768;SDS011;7476;49.404;11.152;2023-02-01T12:46:07;5.87;;;4.47;;
14768;SDS011;7476;49.404;11.152;2023-02-01T12:48:38;8.07;;;3.40;;
14768;SDS011;7476;49.404;11.152;2023-02-01T12:51:11;6.03;;;2.77;;
14768;SDS011;7476;49.404;11.152;2023-02-01T12:53:43;5.10;;;2.80;;
14768;SDS011;7476;49.404;11.152;2023-02-01T12:56:16;6.40;;;2.90;;
14768;SDS011;7476;49.404;11.152;2023-02-01T12:58:48;6.43;;;3.23;;
14768;SDS011;7476;49.404;11.152;2023-02-01T13:01:18;6.33;;;2.77;;
14768;SDS011;7476;49.404;11.152;2023-02-01T13:03:53;8.10;;;3.53;;
14768;SDS011;7476;49.404;11.152;2023-02-01T13:06:23;6.40;;;3.40;;
14768;SDS011;7476;49.404;11.152;2023-02-01T13:08:56;7.53;;;3.20;;
14768;SDS011;7476;49.404;11.152;2023-02-01T13:11:29;8.80;;;3.73;;
14768;SDS011;7476;49.404;11.152;2023-02-01T13:14:00;5.53;;;2.43;;
14768;SDS011;7476;49.404;11.152;2023-02-01T13:16:30;7.73;;;3.40;;
14768;SDS011;7476;49.404;11.152;2023-02-01T13:19:03;8.10;;;3.53;;
14768;SDS011;7476;49.404;11.152;2023-02-01T13:21:36;10.10;;;3.53;;
14768;SDS011;7476;49.404;11.152;2023-02-01T13:24:07;9.63;;;3.70;;
14768;SDS011;7476;49.404;11.152;2023-02-01T13:26:51;7.40;;;3.40;;
14768;SDS011;7476;49.404;11.152;2023-02-01T13:29:20;6.63;;;3.30;;
14768;SDS011;7476;49.404;11.152;2023-02-01T13:31:52;8.10;;;3.63;;
14768;SDS011;7476;49.404;11.152;2023-02-01T13:35:01;5.67;;;3.33;;
14768;SDS011;7476;49.404;11.152;2023-02-01T13:37:51;7.27;;;3.33;;
14768;SDS011;7476;49.404;11.152;2023-02-01T13:40:31;8.50;;;3.00;;
14768;SDS011;7476;49.404;11.152;2023-02-01T13:43:09;10.40;;;3.87;;
14768;SDS011;7476;49.404;11.152;2023-02-01T13:45:42;7.07;;;2.70;;
14768;SDS011;7476;49.404;11.152;2023-02-01T13:48:18;7.17;;;3.40;;
14768;SDS011;7476;49.404;11.152;2023-02-01T13:50:49;5.60;;;2.43;;
14768;SDS011;7476;49.404;11.152;2023-02-01T13:53:21;4.57;;;3.10;;
14768;SDS011;7476;49.404;11.152;2023-02-01T15:42:09;7.33;;;3.27;;
14768;SDS011;7476;49.404;11.152;2023-02-01T15:44:40;11.97;;;3.57;;
14768;SDS011;7476;49.404;11.152;2023-02-01T15:47:13;9.60;;;3.17;;
14768;SDS011;7476;49.404;11.152;2023-02-01T15:49:43;8.60;;;3.50;;
14768;SDS011;7476;49.404;11.152;2023-02-01T15:52:21;11.80;;;3.37;;
14768;SDS011;7476;49.404;11.152;2023-02-01T15:54:51;11.03;;;3.03;;
14768;SDS011;7476;49.404;11.152;2023-02-01T15:57:22;10.20;;;3.30;;
14768;SDS011;7476;49.404;11.152;2023-02-01T15:59:55;7.47;;;3.33;;
14768;SDS011;7476;49.404;11.152;2023-02-01T16:02:26;12.37;;;3.63;;
14768;SDS011;7476;49.404;11.152;2023-02-01T16:04:59;9.83;;;2.70;;
14768;SDS011;7476;49.404;11.152;2023-02-01T16:07:26;8.07;;;2.83;;
14768;SDS011;7476;49.404;11.152;2023-02-01T16:09:55;5.53;;;2.87;;
14768;SDS011;7476;49.404;11.152;2023-02-01T16:12:26;6.43;;;2.97;;
14768;SDS011;7476;49.404;11.152;2023-02-01T16:14:56;6.37;;;2.67;;
14768;SDS011;7476;49.404;11.152;2023-02-01T16:17:22;9.77;;;2.40;;
14768;SDS011;7476;49.404;11.152;2023-02-01T16:19:49;8.20;;;2.80;;
14768;SDS011;7476;49.404;11.152;2023-02-01T16:22:16;7.17;;;2.87;;
14768;SDS011;7476;49.404;11.152;2023-02-01T16:24:42;7.87;;;2.60;;
14768;SDS011;7476;49.404;11.152;2023-02-01T16:27:09;7.70;;;3.17;;
14768;SDS011;7476;49.404;11.152;2023-02-01T16:29:37;9.37;;;2.33;;
14768;SDS011;7476;49.404;11.152;2023-02-01T16:32:04;8.77;;;2.30;;
14768;SDS011;7476;49.404;11.152;2023-02-01T16:34:31;4.80;;;2.30;;
14768;SDS011;7476;49.404;11.152;2023-02-01T16:37:00;7.73;;;2.70;;
14768;SDS011;7476;49.404;11.152;2023-02-01T16:39:27;6.07;;;2.73;;
14768;SDS011;7476;49.404;11.152;2023-02-01T16:41:54;7.30;;;2.90;;
14768;SDS011;7476;49.404;11.152;2023-02-01T16:44:21;9.43;;;2.90;;
14768;SDS011;7476;49.404;11.152;2023-02-01T16:46:49;12.90;;;2.77;;
14768;SDS011;7476;49.404;11.152;2023-02-01T16:49:17;6.90;;;2.60;;
14768;SDS011;7476;49.404;11.152;2023-02-01T16:51:46;7.60;;;2.70;;
14768;SDS011;7476;49.404;11.152;2023-02-01T16:54:13;4.37;;;2.30;;
14768;SDS011;7476;49.404;11.152;2023-02-01T16:56:40;6.33;;;2.70;;
14768;SDS011;7476;49.404;11.152;2023-02-01T16:59:09;6.17;;;2.30;;